Flushing, NY

8:39 AM EST on March 06, 2015 (GMT -0500)
Meadow Lake | Change Station
CLOSE
Current Station
Personal Weather Station
Location: New York, NY
Elevation: -10 ft
Nearby Weather Stations

Elev -10 ft 40.73 °N, 73.84 °W | Updated 47 minutes ago

Clear
Clear
15.1 °F
Feels Like 7 °F
N
5.6
Wind Variable Wind from NNE
Gusts 8.9 mph

Today
High -- | Low -- °F
--% Chance of Precip.
Yesterday
High -- | Low -- °F
Precip. -- in
6:21 AM 5:51 PM
Waxing Gibbous, 99% visible
Pressure 30.54 in
Visibility 10.0 miles
Clouds Clear
Windchill 7 °F
Dew Point 5 °F
Humidity 63%
Rainfall in
Snow Depth Not available.
UV 1 out of 12
Pollen .60 out of 12
Air Quality Not available.
Flu Activity Not available.
METAR KLGA 061251Z 01008KT 10SM CLR M09/M17 A3054 RMK AO2 SLP342 T10941167 $

More Conditions Fewer Conditions

Pressure 30.54 in
Visibility 10.0 miles
Clouds Clear
Windchill 7 °F
Dew Point 5 °F
Humidity 63%
Rainfall in
Snow Depth Not available.
UV 1 out of 12
Pollen .60 out of 12
Air Quality Not available.
Flu Activity Not available.
METAR KLGA 061251Z 01008KT 10SM CLR M09/M17 A3054 RMK AO2 SLP342 T10941167 $

More Conditions Fewer Conditions

10-Day Weather Forecast

Almanac

Astronomy

Mar. 06, 2015 Rise Set
Actual Time
Civil Twilight
Nautical Twilight
Astronomical Twilight
Moon
Length of Visible Light
Length of Day
Tomorrow will be .
, % of the Moon is Illuminated

Today's Extremes

State Highs State Lows

Community

WunderPhotos

Upload Photos

1,803,266 photos uploaded!

WunderBlogs® & News

Nearby

Air Quality

  Air Quality AQ Index Pollutant
Not available.

Snow Depth

Station Depth Elevation

Earthquake Activity

City Distance Mag. Time & Date
Minimum magnitude displayed is 2.5.

Coastal Water Temperatures

Place Temperature

Nearby Weather Stations